Time;durP1;ratioP1;P1;durP2;ratioP2;P2;SDS_P1;SDS_P2;PMS_P1;PMS_P2;Temp;Humidity;BMP_temperature;BMP_pressure;BME280_temperature;BME280_humidity;BME280_pressure;Samples;Min_cycle;Max_cycle;Signal;HPM_P1;HPM_P2
2023/05/17 03:58:30;;;;;;;21.12;15.07;;;;;;;16.31;100.00;99789.72;5606296;31;78507;-56
2023/05/17 04:01:33;;;;;;;17.12;12.93;;;;;;;16.31;100.00;99789.72;5583746;31;33138;-56
2023/05/17 04:04:35;;;;;;;16.40;13.13;;;;;;;15.90;100.00;99798.66;5583857;31;33671;-56
2023/05/17 04:07:38;;;;;;;15.50;12.18;;;;;;;15.88;100.00;99795.47;5583633;31;34274;-56
2023/05/17 04:10:41;;;;;;;18.30;12.13;;;;;;;15.86;100.00;99782.31;5583589;31;33382;-56
2023/05/17 04:13:43;;;;;;;18.25;12.37;;;;;;;15.90;100.00;99788.63;5583519;31;33567;-56
2023/05/17 04:16:45;;;;;;;19.60;12.27;;;;;;;15.89;100.00;99781.66;5583577;31;33619;-56
2023/05/17 04:19:48;;;;;;;17.90;13.02;;;;;;;15.86;100.00;99789.59;5583431;31;33064;-57
2023/05/17 04:22:51;;;;;;;19.42;12.13;;;;;;;15.87;100.00;99786.59;5582919;32;34306;-56
2023/05/17 04:25:53;;;;;;;15.65;12.35;;;;;;;15.87;100.00;99788.50;5583608;32;33752;-56
2023/05/17 04:28:56;;;;;;;16.98;10.95;;;;;;;15.88;100.00;99807.09;5583449;31;34404;-57
2023/05/17 04:31:58;;;;;;;20.23;11.95;;;;;;;15.90;100.00;99804.84;5583463;31;34292;-56
2023/05/17 04:35:01;;;;;;;16.67;10.90;;;;;;;15.95;100.00;99809.25;5583495;32;33538;-56
2023/05/17 04:38:04;;;;;;;15.02;12.15;;;;;;;16.05;100.00;99816.97;5583293;31;33254;-56
2023/05/17 04:41:08;;;;;;;15.73;11.50;;;;;;;16.04;100.00;99825.41;5583271;31;33503;-57
2023/05/17 04:44:11;;;;;;;14.98;11.45;;;;;;;16.02;100.00;99841.97;5583019;31;33466;-57
2023/05/17 04:47:13;;;;;;;14.87;9.85;;;;;;;16.01;100.00;99851.19;5575749;32;34285;-56
2023/05/17 04:50:16;;;;;;;18.27;12.07;;;;;;;16.06;100.00;99852.91;5563852;32;34326;-56
2023/05/17 04:53:19;;;;;;;18.17;13.25;;;;;;;16.09;100.00;99860.34;5563226;32;34550;-56
2023/05/17 04:56:21;;;;;;;20.92;11.55;;;;;;;16.14;100.00;99847.44;5562991;32;33525;-57
2023/05/17 04:59:25;;;;;;;19.70;12.85;;;;;;;16.16;100.00;99853.31;5573891;31;33290;-59
2023/05/17 05:02:27;;;;;;;19.12;13.48;;;;;;;16.19;100.00;99857.25;5582857;32;34320;-59
2023/05/17 05:05:30;;;;;;;19.08;12.68;;;;;;;16.23;100.00;99858.19;5583182;31;33270;-59
2023/05/17 05:08:33;;;;;;;15.68;12.27;;;;;;;16.37;100.00;99850.59;5575279;31;33353;-59
2023/05/17 05:11:36;;;;;;;14.45;12.37;;;;;;;16.24;100.00;99851.66;5569906;31;34267;-59
2023/05/17 05:14:38;;;;;;;15.00;11.73;;;;;;;16.29;100.00;99856.06;5570158;31;33582;-59
2023/05/17 05:17:41;;;;;;;15.98;12.25;;;;;;;16.35;100.00;99855.53;5569540;32;33338;-59
2023/05/17 05:20:45;;;;;;;17.77;12.20;;;;;;;16.36;100.00;99854.44;5570045;32;34390;-59
2023/05/17 05:23:48;;;;;;;15.82;12.60;;;;;;;16.34;100.00;99856.66;5569652;31;33339;-58
2023/05/17 05:26:50;;;;;;;16.98;12.68;;;;;;;16.34;100.00;99850.47;5569757;32;33650;-59
2023/05/17 05:29:54;;;;;;;19.92;12.55;;;;;;;16.44;100.00;99871.69;5569365;32;33700;-59
2023/05/17 05:32:57;;;;;;;18.77;12.88;;;;;;;16.46;100.00;99877.59;5569143;31;33212;-58
2023/05/17 05:36:00;;;;;;;19.30;13.90;;;;;;;16.47;100.00;99870.25;5569362;31;33342;-59
2023/05/17 05:39:02;;;;;;;17.08;13.38;;;;;;;16.49;100.00;99868.81;5569101;31;33635;-59
2023/05/17 05:42:06;;;;;;;17.65;12.27;;;;;;;16.54;100.00;99876.69;5569380;32;33543;-59
2023/05/17 05:45:09;;;;;;;18.17;11.88;;;;;;;16.60;100.00;99880.78;5569359;31;31778;-59
2023/05/17 05:48:12;;;;;;;14.85;11.90;;;;;;;16.65;100.00;99888.72;5569151;31;32713;-59
2023/05/17 05:51:15;;;;;;;17.73;12.57;;;;;;;16.64;100.00;99889.81;5569159;32;33713;-59
2023/05/17 10:45:59;;;;;;;15.98;7.78;;;;;;;17.65;100.00;100043.09;5551375;32;35038;-56
2023/05/17 10:49:02;;;;;;;11.12;7.37;;;;;;;17.74;100.00;100035.62;5565829;31;33415;-57
2023/05/17 10:52:30;;;;;;;12.43;8.20;;;;;;;17.81;100.00;100033.22;5567360;32;33677;-57
2023/05/17 10:55:39;;;;;;;11.98;8.55;;;;;;;17.87;100.00;100044.59;5563131;32;32911;-58
2023/05/17 10:58:43;;;;;;;11.50;8.98;;;;;;;17.95;100.00;100046.44;5568396;32;34437;-57
2023/05/17 11:02:04;;;;;;;13.52;9.55;;;;;;;18.07;100.00;100049.12;5553581;32;33508;-56
2023/05/17 11:05:22;;;;;;;13.40;9.43;;;;;;;18.23;100.00;100051.19;5562018;32;33562;-56
2023/05/17 11:08:24;;;;;;;12.90;9.90;;;;;;;18.32;97.13;100054.59;5568545;32;34410;-56
2023/05/17 11:11:26;;;;;;;12.37;8.57;;;;;;;18.34;97.42;100065.09;5567930;32;34270;-56
2023/05/17 11:14:45;;;;;;;9.38;6.28;;;;;;;18.30;100.00;100064.97;5567273;32;34220;-57
2023/05/17 11:17:49;;;;;;;8.23;6.03;;;;;;;18.28;100.00;100054.47;5563936;32;34373;-57
2023/05/17 11:21:07;;;;;;;11.10;6.20;;;;;;;18.26;100.00;100062.16;5552250;32;33650;-56
2023/05/17 11:24:15;;;;;;;8.55;5.85;;;;;;;18.31;100.00;100056.50;5549226;32;34417;-58
2023/05/17 11:27:26;;;;;;;8.52;5.87;;;;;;;18.36;99.87;100060.13;5560909;32;33465;-56
2023/05/17 11:30:30;;;;;;;11.82;6.10;;;;;;;18.32;98.74;100068.16;5568193;32;34447;-56
2023/05/17 11:33:44;;;;;;;9.98;5.65;;;;;;;18.35;97.82;100074.84;5559034;32;33688;-56
2023/05/17 11:36:51;;;;;;;12.88;5.40;;;;;;;18.23;96.89;100083.75;5564081;32;33750;-56
2023/05/17 11:40:23;;;;;;;10.65;5.82;;;;;;;18.10;97.11;100087.59;5560003;32;33612;-57
2023/05/17 11:43:30;;;;;;;9.43;5.20;;;;;;;18.12;99.45;100094.25;5567243;32;33653;-56
2023/05/17 11:46:33;;;;;;;9.38;4.78;;;;;;;18.08;98.65;100098.78;5568157;32;34357;-56
2023/05/17 11:49:37;;;;;;;10.23;4.95;;;;;;;18.09;96.32;100094.94;5567688;32;33338;-56
2023/05/17 11:52:40;;;;;;;9.32;4.30;;;;;;;17.96;95.16;100102.25;5561685;32;33708;-55
2023/05/17 11:55:47;;;;;;;8.73;4.82;;;;;;;17.93;96.63;100102.13;5550260;32;33642;-57
2023/05/17 11:58:51;;;;;;;9.98;5.65;;;;;;;17.97;97.72;100101.13;5550713;32;34392;-56
2023/05/17 12:01:55;;;;;;;8.85;6.20;;;;;;;17.98;95.08;100099.19;5556285;32;33829;-56
2023/05/17 12:04:58;;;;;;;10.52;6.80;;;;;;;18.11;95.83;100097.28;5556083;32;33973;-56
2023/05/17 12:08:04;;;;;;;10.93;7.80;;;;;;;18.29;93.79;100094.03;5564583;32;34474;-56
2023/05/17 12:11:11;;;;;;;9.45;6.10;;;;;;;18.34;96.05;100105.78;5554524;32;34396;-56
2023/05/17 12:14:17;;;;;;;8.88;5.07;;;;;;;18.40;93.80;100101.72;5556620;32;34232;-57
2023/05/17 12:17:37;;;;;;;12.43;7.07;;;;;;;18.45;91.38;100104.22;5554732;32;33700;-56
2023/05/17 12:20:52;;;;;;;8.23;4.80;;;;;;;18.53;92.58;100098.66;5561005;32;34112;-55
2023/05/17 12:23:55;;;;;;;;;;;;;;;18.61;91.40;100098.88;5567371;32;34186;-57
2023/05/17 12:26:57;;;;;;;11.73;4.97;;;;;;;18.78;95.45;100098.69;5560776;32;34641;-56
2023/05/17 12:30:13;;;;;;;10.82;4.68;;;;;;;18.81;92.48;100106.16;5569997;32;33770;-56
2023/05/17 12:33:15;;;;;;;9.02;3.97;;;;;;;18.91;90.42;100100.25;5567756;32;33771;-56
2023/05/17 12:36:20;;;;;;;8.68;4.95;;;;;;;18.85;90.07;100100.81;5568705;32;33713;-56
2023/05/17 12:39:23;;;;;;;9.52;4.60;;;;;;;18.76;89.67;100100.94;5568124;32;33989;-55
2023/05/17 12:42:25;;;;;;;10.75;5.22;;;;;;;18.68;88.52;100101.84;5569536;32;33415;-56
2023/05/17 12:45:28;;;;;;;11.57;8.00;;;;;;;18.70;90.05;100105.00;5567671;32;33615;-56
2023/05/17 12:48:35;;;;;;;9.73;6.55;;;;;;;18.66;88.85;100110.31;5568742;32;33716;-55
2023/05/17 12:51:44;;;;;;;12.13;8.50;;;;;;;18.73;91.28;100109.75;5568339;32;33921;-56
2023/05/17 12:54:46;;;;;;;11.70;8.23;;;;;;;18.74;88.46;100114.87;5569511;32;34379;-55
2023/05/17 12:57:53;;;;;;;13.13;9.23;;;;;;;18.76;86.98;100103.66;5564467;32;33880;-56
2023/05/17 13:01:01;;;;;;;11.65;8.02;;;;;;;18.77;87.78;100108.75;5569541;32;34411;-55
2023/05/17 13:04:03;;;;;;;10.60;6.45;;;;;;;18.87;88.72;100112.13;5569294;32;33369;-56
2023/05/17 13:07:06;;;;;;;11.30;4.47;;;;;;;18.90;91.50;100116.88;5569333;32;33598;-56
2023/05/17 13:10:25;;;;;;;9.82;4.30;;;;;;;18.90;87.81;100122.31;5569493;32;33651;-56
2023/05/17 13:13:32;;;;;;;9.00;4.15;;;;;;;18.83;87.49;100127.53;5568578;32;33746;-56
2023/05/17 13:16:37;;;;;;;8.30;3.65;;;;;;;18.88;91.39;100133.53;5569434;32;33750;-56
2023/05/17 13:19:39;;;;;;;8.68;3.60;;;;;;;18.83;87.82;100127.53;5569069;32;33209;-56
2023/05/17 13:22:45;;;;;;;5.25;3.65;;;;;;;18.79;86.98;100130.12;5569114;32;33201;-56
2023/05/17 13:25:48;;;;;;;6.28;3.35;;;;;;;18.85;87.82;100125.28;5569263;32;34345;-56
2023/05/17 13:28:50;;;;;;;6.85;4.78;;;;;;;18.85;87.55;100126.06;5568432;32;33688;-56
2023/05/17 13:31:53;;;;;;;9.02;5.20;;;;;;;18.87;87.39;100129.19;5549550;32;33723;-55
2023/05/17 13:34:55;;;;;;;7.50;4.70;;;;;;;18.83;84.32;100128.31;5556897;32;33681;-56
2023/05/17 13:37:58;;;;;;;14.02;5.70;;;;;;;18.76;83.86;100136.25;5567556;32;33592;-56
2023/05/17 13:41:00;;;;;;;7.20;4.87;;;;;;;18.69;85.66;100131.34;5567852;32;33632;-55
2023/05/17 13:44:03;;;;;;;9.38;4.57;;;;;;;18.52;83.57;100131.59;5569319;32;34306;-55
2023/05/17 13:47:05;;;;;;;11.65;4.72;;;;;;;18.44;83.70;100124.34;5569513;31;33775;-58
2023/05/17 13:50:09;;;;;;;7.40;4.10;;;;;;;18.23;83.76;100129.88;5569095;32;33583;-59
2023/05/17 13:53:11;;;;;;;7.45;4.43;;;;;;;18.30;87.32;100130.88;5568770;32;34129;-58
2023/05/17 13:56:14;;;;;;;7.70;4.47;;;;;;;18.36;86.42;100125.25;5568773;32;33617;-58
2023/05/17 13:59:16;;;;;;;7.80;4.40;;;;;;;18.38;85.49;100129.22;5569052;32;33733;-58
2023/05/17 14:02:19;;;;;;;10.38;4.78;;;;;;;18.42;85.26;100126.62;5567623;32;33176;-58
2023/05/17 14:05:21;;;;;;;8.45;4.15;;;;;;;18.45;84.67;100129.44;5569139;32;33717;-58
2023/05/17 14:08:23;;;;;;;6.55;4.28;;;;;;;18.48;83.97;100127.97;5569609;32;34003;-58
2023/05/17 14:11:26;;;;;;;10.73;3.90;;;;;;;18.48;82.61;100138.84;5568999;32;34326;-59
2023/05/17 14:14:29;;;;;;;10.23;4.32;;;;;;;18.54;82.67;100143.69;5569629;32;34263;-59
2023/05/17 14:17:32;;;;;;;7.40;4.43;;;;;;;18.57;82.51;100146.84;5568871;32;33807;-58
2023/05/17 14:20:34;;;;;;;10.90;5.35;;;;;;;18.38;80.49;100142.78;5569135;32;34299;-58
2023/05/17 14:23:36;;;;;;;10.93;4.78;;;;;;;18.34;82.08;100155.44;5569218;32;33303;-58
2023/05/17 14:26:39;;;;;;;7.22;4.43;;;;;;;18.57;79.51;100160.41;5569413;32;33594;-58
2023/05/17 14:29:41;;;;;;;9.88;4.30;;;;;;;18.42;81.11;100162.69;5568883;32;33571;-58
2023/05/17 14:32:43;;;;;;;11.60;3.80;;;;;;;18.35;81.79;100169.81;5569062;32;34297;-58
2023/05/17 14:35:46;;;;;;;5.65;3.67;;;;;;;18.39;83.10;100163.34;5568944;32;33333;-58
2023/05/17 14:38:48;;;;;;;6.53;3.78;;;;;;;18.25;81.09;100166.41;5568504;32;34412;-58
2023/05/17 14:41:51;;;;;;;10.32;3.95;;;;;;;18.15;85.23;100185.03;5557626;32;34349;-58
2023/05/17 14:44:53;;;;;;;7.93;3.37;;;;;;;18.01;81.64;100196.16;5549470;32;33654;-58
2023/05/17 14:47:55;;;;;;;7.55;3.28;;;;;;;17.92;81.94;100204.41;5553357;32;34398;-58
2023/05/17 14:50:57;;;;;;;10.18;2.90;;;;;;;17.80;82.49;100207.06;5568865;32;33462;-58
2023/05/17 14:54:00;;;;;;;6.80;3.05;;;;;;;17.78;82.33;100199.25;5568804;32;33800;-58
2023/05/17 14:57:03;;;;;;;6.68;3.03;;;;;;;17.78;83.78;100204.69;5568831;32;33783;-58
2023/05/17 15:00:09;;;;;;;6.03;3.10;;;;;;;17.67;83.11;100194.53;5568881;32;33681;-58
2023/05/17 15:03:11;;;;;;;7.37;2.70;;;;;;;17.75;81.38;100209.97;5568737;32;33691;-58
2023/05/17 15:06:14;;;;;;;6.07;3.15;;;;;;;17.72;81.70;100208.69;5568343;32;34493;-58
2023/05/17 15:09:17;;;;;;;7.97;3.17;;;;;;;17.73;82.79;100223.03;5569038;32;33826;-59
2023/05/17 15:12:19;;;;;;;4.30;2.62;;;;;;;17.56;81.58;100219.34;5569154;32;33181;-58
2023/05/17 15:15:22;;;;;;;4.43;3.25;;;;;;;17.46;81.79;100227.09;5568481;32;34264;-58
2023/05/17 15:18:24;;;;;;;5.07;2.67;;;;;;;17.32;83.20;100225.41;5567736;32;33760;-58
2023/05/17 15:21:26;;;;;;;6.72;2.72;;;;;;;17.32;82.92;100228.13;5568273;32;34493;-58
2023/05/17 15:24:29;;;;;;;7.10;2.80;;;;;;;17.27;83.87;100225.59;5568619;32;34255;-58
2023/05/17 15:27:31;;;;;;;3.95;2.65;;;;;;;17.27;83.48;100230.22;5568246;32;34333;-58
2023/05/17 15:30:34;;;;;;;5.90;2.33;;;;;;;17.19;83.87;100234.59;5568741;32;34364;-59
2023/05/17 15:33:42;;;;;;;4.82;2.42;;;;;;;17.17;82.92;100244.16;5568230;32;34041;-58
2023/05/17 15:36:44;;;;;;;4.22;2.22;;;;;;;17.20;83.57;100246.22;5568364;32;33721;-58
2023/05/17 15:39:46;;;;;;;5.95;2.00;;;;;;;17.19;84.07;100244.63;5568600;32;33725;-58
